Yalova Airport

LTBP · 亚洛瓦省, 土耳其

罗盘
风向 的 风向 060° Yalova Airport 8/26
风: 8 kt, 3 beaufort

7 kt

3 kt
改变
0 ft 1.000 2.000 3.000 4.000 5.000
Cloud Cloud Cloud Cloud Cloud Cloud
BKN 300
METAR LTFJ 010420Z 06008KT 5000 2400N BR BKN003 07/06 Q1016 BECMG 1200 BCFG RMK RWY24R 05007KT RWY06R 03008KT RWY24L 03011KT

METAR Yalova Airport - LTBP

Yalova Airport是,土耳其中的小机场。 该机场位于纬度40,68645和经度29,37813。 该机场有2条跑道: 8/26 和 18/36. 本场的ICAO机场代码为LTBP。 机场在Istanbul FIR中。

该航空气象观测是针对Istanbul Sabiha Gökçen International Airport在2024年3月1日 07:20, 当地时间进行的。

机场观察

风向为060°,速度为8 kt。

可见度为5 km。 最小可见度为2,4 km,朝着:N。

有碎云在300 ft的高度。 破损或更高的上限为300 ft。

当前天气为薄雾。 温度为7 °C,阵风为3 °C。 露点为6 °C,相对湿度为93%。 海平面上的气压为1016 hPa (QNH)。

发展趋势

  • 变得

    可变方向的风很小或没有。 可见性变为1,2 km。 重大天气:的补丁 多雾路段。

白天

今天,太阳从07:35升起,在18:53降落。 这适用于Yalova Airport,世界夏令时可能有所不同。 当地时间与世界标准时间之间的时差为+3 小时。 当前,没有夏令时有效。

公司介绍

我们没有关于这个机场的公司信息。

体会

到Vliegles.nl去找飞行课程,跳伞和其他飞行体验。 浏览页面,了解Yalova Airport附近所有可用的活动。 你也可以使用搜索功能来寻找你所在地附近的特定飞行课程、跳伞或其他飞行体验。

警示语

最小能见度为方向 N。

跑道

Id 标题 侧风 逆风 侧风 %
8/26 085°-265° 3 kt 7 kt 42 %
18/36 180°-360° 7 kt 4 kt 87 %

逆风成分最大的方向会被突出显示,并用于横风计算。 这并不一定意味着这个方向在使用。

乌云

300 ft BKN 碎云

温度 & 天气

天气 薄雾
温度 7 °C
露点 6 °C
相对湿度 93%
风寒 3 °C
Kp-index 3 (0-9)

评论

RWY24R 05007KT RWY06R 03008KT RWY24L 03011KT

白天

日出
07:35
中午
13:14
日落
18:53 (11:15)

小工具

你想在你的网站上有一个关于Yalova Airport的当前航空天气(METAR)的小部件吗?

显示HTML代码
?>